createdAt,value
2023-05-14T00:01:05.030Z,88.29
2023-05-14T00:03:33.827Z,87.97
2023-05-14T00:06:03.009Z,88.36
2023-05-14T00:08:31.654Z,88.75
2023-05-14T00:11:00.447Z,89.26
2023-05-14T00:13:29.487Z,89.09
2023-05-14T00:15:58.191Z,88.98
2023-05-14T00:18:27.056Z,89.08
2023-05-14T00:20:55.619Z,90.27
2023-05-14T00:23:24.803Z,89.83
2023-05-14T00:25:53.258Z,88.76
2023-05-14T00:28:22.399Z,90.33
2023-05-14T00:30:52.191Z,92.17
2023-05-14T00:33:20.794Z,92.81
2023-05-14T00:35:49.474Z,90.79
2023-05-14T00:38:19.688Z,91.51
2023-05-14T00:40:52.037Z,90.21
2023-05-14T00:43:22.727Z,90.32
2023-05-14T00:45:55.895Z,91.19
2023-05-14T00:48:25.372Z,89.82
2023-05-14T00:50:54.664Z,91.03
2023-05-14T00:53:23.272Z,90.97
2023-05-14T00:55:53.166Z,90.59
2023-05-14T00:58:22.909Z,89.40
2023-05-14T01:00:52.148Z,89.25
2023-05-14T01:03:20.921Z,89.74
2023-05-14T01:06:35.389Z,90.18
2023-05-14T01:09:15.036Z,89.95
2023-05-14T01:12:25.216Z,90.57
2023-05-14T01:15:29.174Z,91.29
2023-05-14T01:18:04.753Z,91.10
2023-05-14T01:20:33.498Z,91.33
2023-05-14T01:23:02.053Z,91.41
2023-05-14T01:25:32.445Z,92.25
2023-05-14T01:28:18.115Z,92.58
2023-05-14T01:31:09.891Z,92.84
2023-05-14T01:33:42.586Z,92.24
2023-05-14T01:36:11.570Z,92.22
2023-05-14T01:38:45.856Z,93.22
2023-05-14T01:41:18.687Z,91.85
2023-05-14T01:43:50.206Z,91.96
2023-05-14T01:46:20.027Z,91.85
2023-05-14T01:52:22.229Z,92.35
2023-05-14T01:54:52.103Z,92.20
2023-05-14T01:57:21.811Z,91.66
2023-05-14T01:59:50.586Z,91.32
2023-05-14T02:02:19.194Z,90.81
2023-05-14T02:04:47.853Z,91.25
2023-05-14T02:07:16.261Z,91.74
2023-05-14T02:09:44.643Z,91.61
2023-05-14T02:12:13.138Z,92.54
2023-05-14T02:14:41.530Z,92.63
2023-05-14T02:17:10.257Z,92.35
2023-05-14T02:19:38.708Z,93.03
2023-05-14T02:22:07.236Z,93.31
2023-05-14T02:24:35.654Z,92.62
2023-05-14T02:27:04.769Z,91.97
2023-05-14T02:29:33.156Z,93.42
2023-05-14T02:32:01.559Z,92.15
2023-05-14T02:34:30.132Z,92.57
2023-05-14T02:36:58.596Z,93.97
2023-05-14T02:39:27.270Z,92.88
2023-05-14T02:41:55.773Z,93.07
2023-05-14T02:44:24.334Z,92.42
2023-05-14T02:46:52.906Z,92.12
2023-05-14T02:49:21.551Z,93.14
2023-05-14T02:51:50.009Z,93.09
2023-05-14T02:54:18.580Z,93.46
2023-05-14T02:56:47.301Z,92.93
2023-05-14T02:59:15.897Z,93.23
2023-05-14T03:01:44.837Z,94.45
2023-05-14T03:04:13.948Z,93.72
2023-05-14T03:06:42.444Z,93.32
2023-05-14T03:09:11.278Z,93.86
2023-05-14T03:11:39.895Z,93.43
2023-05-14T03:14:08.380Z,93.12
2023-05-14T03:16:36.885Z,92.46
2023-05-14T03:19:05.359Z,92.83
2023-05-14T03:21:33.886Z,92.34
2023-05-14T03:24:02.968Z,92.53
2023-05-14T03:26:31.446Z,92.58
2023-05-14T03:29:00.034Z,92.14
2023-05-14T03:31:28.582Z,91.92
2023-05-14T03:33:58.162Z,92.10
2023-05-14T03:36:26.554Z,92.00
2023-05-14T03:38:55.075Z,91.97
2023-05-14T03:41:23.542Z,91.61
2023-05-14T03:43:52.133Z,91.59
2023-05-14T03:46:20.624Z,91.96
2023-05-14T03:48:49.396Z,92.29
2023-05-14T03:51:18.302Z,92.46
2023-05-14T03:53:46.804Z,91.47
2023-05-14T03:56:15.696Z,90.47
2023-05-14T03:58:44.173Z,90.09
2023-05-14T04:01:12.574Z,89.39
2023-05-14T04:03:41.084Z,89.49
2023-05-14T04:06:10.011Z,89.49
2023-05-14T04:08:39.837Z,89.39
2023-05-14T04:11:08.436Z,88.92
2023-05-14T04:13:37.148Z,88.52
2023-05-14T04:16:06.254Z,88.60
2023-05-14T04:18:35.631Z,88.40
2023-05-14T04:21:04.372Z,88.00
2023-05-14T04:23:32.911Z,88.16
2023-05-14T04:26:01.396Z,86.66
2023-05-14T04:28:29.793Z,86.09
2023-05-14T04:30:58.906Z,85.35
2023-05-14T04:33:27.966Z,85.19
2023-05-14T04:35:56.644Z,84.28
2023-05-14T04:38:25.184Z,84.04
2023-05-14T04:40:53.931Z,83.51
2023-05-14T04:43:22.411Z,83.42
2023-05-14T04:45:52.526Z,82.72
2023-05-14T04:48:21.138Z,82.75
2023-05-14T04:50:49.579Z,82.25
2023-05-14T04:53:18.122Z,82.60
2023-05-14T04:55:46.502Z,82.61
2023-05-14T04:58:15.107Z,82.16
2023-05-14T05:00:44.624Z,81.97
2023-05-14T05:03:13.239Z,81.92
2023-05-14T05:05:41.937Z,81.75
2023-05-14T05:08:11.555Z,81.59
2023-05-14T05:10:40.029Z,81.45
2023-05-14T05:13:08.630Z,80.99
2023-05-14T05:15:37.123Z,80.85
2023-05-14T05:18:06.554Z,80.36
2023-05-14T05:20:35.161Z,79.96
2023-05-14T05:23:03.609Z,79.43
2023-05-14T05:25:32.174Z,79.13
2023-05-14T05:28:00.852Z,78.47
2023-05-14T05:30:30.492Z,78.62
2023-05-14T05:32:59.288Z,78.20
2023-05-14T05:35:29.027Z,77.82
2023-05-14T05:38:00.472Z,76.32
2023-05-14T05:40:29.943Z,76.13
2023-05-14T05:42:58.444Z,76.89
2023-05-14T05:45:27.220Z,76.86
2023-05-14T05:47:55.839Z,76.38
2023-05-14T05:50:24.941Z,75.96
2023-05-14T05:52:53.837Z,75.55
2023-05-14T05:55:22.304Z,74.88
2023-05-14T05:57:50.945Z,74.85
2023-05-14T06:00:20.841Z,73.71
2023-05-14T06:02:49.314Z,73.50
2023-05-14T06:05:18.296Z,73.40
2023-05-14T06:07:46.812Z,73.51
2023-05-14T06:10:15.348Z,73.39
2023-05-14T06:12:43.912Z,73.02
2023-05-14T06:15:13.638Z,71.41
2023-05-14T06:17:42.391Z,72.08
2023-05-14T06:20:11.925Z,72.11
2023-05-14T06:22:40.505Z,71.06
2023-05-14T06:25:09.758Z,71.81
2023-05-14T06:27:38.744Z,71.65
2023-05-14T06:30:08.590Z,71.21
2023-05-14T06:32:37.590Z,71.00
2023-05-14T06:35:08.505Z,69.30
2023-05-14T06:37:37.126Z,69.25
2023-05-14T06:40:07.268Z,67.89
2023-05-14T06:42:35.649Z,68.91
2023-05-14T06:45:07.498Z,68.76
2023-05-14T06:47:36.260Z,67.65
2023-05-14T06:50:05.356Z,65.68
2023-05-14T06:52:33.843Z,66.95
2023-05-14T06:55:02.469Z,66.09
2023-05-14T06:57:31.067Z,64.66
2023-05-14T06:59:59.501Z,62.67
2023-05-14T07:02:28.150Z,62.52
2023-05-14T07:08:37.293Z,62.01
2023-05-14T07:11:05.997Z,62.57
2023-05-14T07:13:34.673Z,61.37
2023-05-14T07:16:03.411Z,60.11
2023-05-14T07:18:32.038Z,61.14
2023-05-14T07:21:00.558Z,61.08
2023-05-14T07:23:29.072Z,60.09
2023-05-14T07:25:57.554Z,59.70
2023-05-14T07:28:26.197Z,58.03
2023-05-14T07:30:54.832Z,57.79
2023-05-14T07:33:24.170Z,58.26
2023-05-14T07:35:54.259Z,58.13
2023-05-14T07:38:22.876Z,57.50
2023-05-14T07:40:51.366Z,56.74
2023-05-14T07:43:19.913Z,53.82
2023-05-14T07:45:48.561Z,54.60
2023-05-14T07:48:17.391Z,55.13
2023-05-14T07:50:48.862Z,54.72
2023-05-14T07:53:18.170Z,51.96
2023-05-14T07:55:48.530Z,53.08
2023-05-14T07:58:17.125Z,51.68
2023-05-14T08:00:45.924Z,50.94
2023-05-14T08:03:14.605Z,51.42
2023-05-14T08:05:43.443Z,49.58
2023-05-14T08:08:12.639Z,50.88
2023-05-14T08:10:41.331Z,49.15
2023-05-14T08:13:09.904Z,48.81
2023-05-14T08:15:38.482Z,49.88
2023-05-14T08:18:07.109Z,50.09
2023-05-14T08:20:35.714Z,49.87
2023-05-14T08:23:04.519Z,48.76
2023-05-14T08:25:34.191Z,50.41
2023-05-14T08:28:02.929Z,49.30
2023-05-14T08:30:31.634Z,46.35
2023-05-14T08:33:00.306Z,46.87
2023-05-14T08:35:28.912Z,46.52
2023-05-14T08:37:57.535Z,46.41
2023-05-14T08:40:27.239Z,46.34
2023-05-14T08:42:58.907Z,45.81
2023-05-14T08:45:34.255Z,45.14
2023-05-14T08:48:09.174Z,44.77
2023-05-14T08:50:38.103Z,44.56
2023-05-14T08:53:07.335Z,44.87
2023-05-14T08:55:37.690Z,45.44
2023-05-14T08:58:06.196Z,45.71
2023-05-14T09:00:35.883Z,43.88
2023-05-14T09:03:07.379Z,44.87
2023-05-14T09:05:36.500Z,44.53
2023-05-14T09:08:05.166Z,44.61
2023-05-14T09:10:33.628Z,43.90
2023-05-14T09:13:02.224Z,43.50
2023-05-14T09:15:31.676Z,40.98
2023-05-14T09:18:00.369Z,40.11
2023-05-14T09:20:29.572Z,38.32
2023-05-14T09:23:02.815Z,39.52
2023-05-14T09:25:32.966Z,40.14
2023-05-14T09:28:07.860Z,37.66
2023-05-14T09:30:37.241Z,35.53
2023-05-14T09:33:07.729Z,35.85
2023-05-14T09:35:41.499Z,36.06
2023-05-14T09:38:09.883Z,36.50
2023-05-14T09:40:38.297Z,35.53
2023-05-14T09:43:06.793Z,35.56
2023-05-14T09:45:35.737Z,36.10
2023-05-14T09:48:04.490Z,35.07
2023-05-14T09:50:33.222Z,34.54
2023-05-14T09:53:02.239Z,34.77
2023-05-14T09:55:31.976Z,35.00
2023-05-14T09:58:00.344Z,34.79
2023-05-14T10:00:31.880Z,34.71
2023-05-14T10:03:06.232Z,34.72
2023-05-14T10:05:37.450Z,35.23
2023-05-14T10:08:14.755Z,34.82
2023-05-14T10:10:43.098Z,34.67
2023-05-14T10:13:15.498Z,34.02
2023-05-14T10:16:20.393Z,33.00
2023-05-14T10:18:57.394Z,33.72
2023-05-14T10:21:31.639Z,33.91
2023-05-14T10:24:00.488Z,33.27
2023-05-14T10:26:29.257Z,32.66
2023-05-14T10:28:59.411Z,32.08
2023-05-14T10:31:55.606Z,32.95
2023-05-14T10:34:46.677Z,31.98
2023-05-14T10:37:26.079Z,32.66
2023-05-14T10:39:58.970Z,32.98
2023-05-14T10:42:32.246Z,32.32
2023-05-14T10:45:06.018Z,31.63
2023-05-14T10:47:40.748Z,31.51
2023-05-14T10:50:12.557Z,30.59
2023-05-14T10:52:43.761Z,31.62
2023-05-14T10:55:17.218Z,31.36
2023-05-14T10:57:46.929Z,31.66
2023-05-14T11:00:17.362Z,32.05
2023-05-14T11:02:46.962Z,31.88
2023-05-14T11:05:17.973Z,31.89
2023-05-14T11:07:49.276Z,31.68
2023-05-14T11:10:20.646Z,30.91
2023-05-14T11:12:51.972Z,30.69
2023-05-14T11:15:26.838Z,30.80
2023-05-14T11:17:55.389Z,31.18
2023-05-14T11:20:24.175Z,30.91
2023-05-14T11:22:53.054Z,31.28
2023-05-14T11:25:22.979Z,31.22
2023-05-14T11:27:52.404Z,30.90
2023-05-14T11:30:22.025Z,31.45
2023-05-14T11:32:51.422Z,31.90
2023-05-14T11:35:19.976Z,31.60
2023-05-14T11:37:53.047Z,31.20
2023-05-14T11:40:21.781Z,30.79
2023-05-14T11:42:53.957Z,29.99
2023-05-14T11:45:26.742Z,30.30
2023-05-14T11:47:55.282Z,31.34
2023-05-14T11:50:24.195Z,30.50
2023-05-14T11:52:57.631Z,29.85
2023-05-14T11:55:26.314Z,30.03
2023-05-14T11:57:55.095Z,30.17
2023-05-14T12:00:25.943Z,29.67
2023-05-14T12:02:55.036Z,30.06
2023-05-14T12:05:23.491Z,30.85
2023-05-14T12:07:52.217Z,29.27
2023-05-14T12:10:20.781Z,29.75
2023-05-14T12:12:49.425Z,29.40
2023-05-14T12:15:18.650Z,29.57
2023-05-14T12:17:52.153Z,29.80
2023-05-14T12:20:20.895Z,30.44
2023-05-14T12:22:49.484Z,30.07
2023-05-14T12:25:18.013Z,29.86
2023-05-14T12:27:46.439Z,29.88
2023-05-14T12:32:46.989Z,30.12
2023-05-14T12:35:15.608Z,29.70
2023-05-14T12:37:44.208Z,29.37
2023-05-14T12:40:13.244Z,29.65
2023-05-14T12:42:42.041Z,30.10
2023-05-14T12:45:11.482Z,30.18
2023-05-14T12:47:40.148Z,29.40
2023-05-14T12:50:09.456Z,29.22
2023-05-14T12:52:39.997Z,29.55
2023-05-14T12:55:09.849Z,29.03
2023-05-14T12:57:39.838Z,29.12
2023-05-14T13:00:21.578Z,29.28
2023-05-14T13:02:50.382Z,29.73
2023-05-14T13:05:19.105Z,29.24
2023-05-14T13:07:47.851Z,29.39
2023-05-14T13:10:18.531Z,29.12
2023-05-14T13:12:47.054Z,28.28
2023-05-14T13:15:15.869Z,28.50
2023-05-14T13:17:44.771Z,28.33
2023-05-14T13:20:13.548Z,27.78
2023-05-14T13:22:42.422Z,27.42
2023-05-14T13:25:11.022Z,27.28
2023-05-14T13:27:39.628Z,27.01
2023-05-14T13:30:08.795Z,26.67
2023-05-14T13:32:37.434Z,26.42
2023-05-14T13:35:07.938Z,26.77
2023-05-14T13:37:36.867Z,27.05
2023-05-14T13:40:08.689Z,27.30
2023-05-14T13:42:37.788Z,27.85
2023-05-14T13:45:07.565Z,27.69
2023-05-14T13:47:36.308Z,28.03
2023-05-14T13:50:05.599Z,28.07
2023-05-14T13:52:34.191Z,27.86
2023-05-14T13:55:02.714Z,27.30
2023-05-14T13:57:31.355Z,27.69
2023-05-14T14:00:00.155Z,27.15
2023-05-14T14:02:29.006Z,26.91
2023-05-14T14:04:57.629Z,26.23
2023-05-14T14:07:26.183Z,26.18
2023-05-14T14:09:55.868Z,26.74
2023-05-14T14:12:24.568Z,26.91
2023-05-14T14:14:53.277Z,27.01
2023-05-14T14:17:21.882Z,27.04
2023-05-14T14:19:50.552Z,27.06
2023-05-14T14:22:19.278Z,27.04
2023-05-14T14:24:47.954Z,27.43
2023-05-14T14:27:16.659Z,27.50
2023-05-14T14:29:45.144Z,26.88
2023-05-14T14:32:14.842Z,27.46
2023-05-14T14:34:43.403Z,27.45
2023-05-14T14:37:12.117Z,27.64
2023-05-14T14:39:40.769Z,27.48
2023-05-14T14:42:09.672Z,27.24
2023-05-14T14:44:38.420Z,27.08
2023-05-14T14:47:07.353Z,26.98
2023-05-14T14:49:36.967Z,26.91
2023-05-14T14:52:05.791Z,27.21
2023-05-14T14:54:34.575Z,27.24
2023-05-14T14:57:05.647Z,27.33
2023-05-14T14:59:35.835Z,27.36
2023-05-14T15:02:04.786Z,27.77
2023-05-14T15:04:34.973Z,28.08
2023-05-14T15:07:03.716Z,28.25
2023-05-14T15:09:32.616Z,28.40
2023-05-14T15:12:01.456Z,28.27
2023-05-14T15:14:30.221Z,28.73
2023-05-14T15:16:59.163Z,28.86
2023-05-14T15:19:29.881Z,28.66
2023-05-14T15:21:58.868Z,28.74
2023-05-14T15:24:27.549Z,28.37
2023-05-14T15:26:56.129Z,28.62
2023-05-14T15:29:25.495Z,26.98
2023-05-14T15:31:54.582Z,27.01
2023-05-14T15:34:23.324Z,26.44
2023-05-14T15:36:51.953Z,26.65
2023-05-14T15:39:20.483Z,25.69
2023-05-14T15:41:49.036Z,25.54
2023-05-14T15:44:17.652Z,25.09
2023-05-14T15:46:46.346Z,25.00
2023-05-14T15:49:15.114Z,23.91
2023-05-14T15:51:43.732Z,24.10
2023-05-14T15:54:12.481Z,24.06
2023-05-14T15:56:41.161Z,23.85
2023-05-14T15:59:09.942Z,23.07
2023-05-14T16:01:38.625Z,23.09
2023-05-14T16:04:07.295Z,23.12
2023-05-14T16:06:36.471Z,22.55
2023-05-14T16:09:05.304Z,22.75
2023-05-14T16:11:34.005Z,22.73
2023-05-14T16:14:02.746Z,23.09
2023-05-14T16:16:31.467Z,23.80
2023-05-14T16:19:00.328Z,24.52
2023-05-14T16:21:28.993Z,25.00
2023-05-14T16:23:57.650Z,25.75
2023-05-14T16:26:26.685Z,26.49
2023-05-14T16:28:55.281Z,27.23
2023-05-14T16:31:24.057Z,27.36
2023-05-14T16:33:52.688Z,28.17
2023-05-14T16:36:21.293Z,28.87
2023-05-14T16:39:06.801Z,29.15
2023-05-14T16:41:36.508Z,30.05
2023-05-14T16:44:05.251Z,30.10
2023-05-14T16:46:34.165Z,30.50
2023-05-14T16:49:02.949Z,30.99
2023-05-14T16:51:32.018Z,30.94
2023-05-14T16:54:00.746Z,31.19
2023-05-14T16:56:30.470Z,31.24
2023-05-14T16:58:59.033Z,31.68
2023-05-14T17:01:27.543Z,31.72
2023-05-14T17:03:56.409Z,32.06
2023-05-14T17:06:25.098Z,32.79
2023-05-14T17:08:53.645Z,33.53
2023-05-14T17:11:22.194Z,33.65
2023-05-14T17:14:01.652Z,34.09
2023-05-14T17:16:29.145Z,33.78
2023-05-14T17:18:56.934Z,33.95
2023-05-14T17:21:25.977Z,34.24
2023-05-14T17:23:54.589Z,35.09
2023-05-14T17:26:23.646Z,36.14
2023-05-14T17:28:52.322Z,35.68
2023-05-14T17:31:22.555Z,35.26
2023-05-14T17:33:51.198Z,36.00
2023-05-14T17:36:19.681Z,36.58
2023-05-14T17:38:48.345Z,36.97
2023-05-14T17:41:16.746Z,36.91
2023-05-14T17:43:45.389Z,38.69
2023-05-14T17:46:14.298Z,38.68
2023-05-14T17:48:42.980Z,39.42
2023-05-14T17:51:11.485Z,39.96
2023-05-14T17:53:40.060Z,40.61
2023-05-14T17:56:08.673Z,39.27
2023-05-14T17:58:37.314Z,39.72
2023-05-14T18:01:06.254Z,40.58
2023-05-14T18:03:35.129Z,41.44
2023-05-14T18:06:04.502Z,41.27
2023-05-14T18:08:33.064Z,42.20
2023-05-14T18:11:01.710Z,42.86
2023-05-14T18:13:30.307Z,42.35
2023-05-14T18:15:58.827Z,43.08
2023-05-14T18:18:27.657Z,42.15
2023-05-14T18:20:56.223Z,42.87
2023-05-14T18:23:24.981Z,42.69
2023-05-14T18:25:54.232Z,41.65
2023-05-14T18:28:22.947Z,41.35
2023-05-14T18:30:51.542Z,41.74
2023-05-14T18:33:20.141Z,41.28
2023-05-14T18:35:48.606Z,41.40
2023-05-14T18:38:18.308Z,41.90
2023-05-14T18:40:46.992Z,43.40
2023-05-14T18:43:18.531Z,44.04
2023-05-14T18:45:47.614Z,43.60
2023-05-14T18:48:16.625Z,44.25
2023-05-14T18:50:45.184Z,43.46
2023-05-14T18:53:13.713Z,43.74
2023-05-14T18:55:42.298Z,45.22
2023-05-14T18:58:11.128Z,43.84
2023-05-14T19:00:39.828Z,43.84
2023-05-14T19:03:08.733Z,43.43
2023-05-14T19:05:38.130Z,43.44
2023-05-14T19:08:07.973Z,43.13
2023-05-14T19:10:36.515Z,43.45
2023-05-14T19:13:05.407Z,44.95
2023-05-14T19:15:33.931Z,45.64
2023-05-14T19:18:02.391Z,45.88
2023-05-14T19:20:30.884Z,46.48
2023-05-14T19:22:59.425Z,46.74
2023-05-14T19:25:28.283Z,47.09
2023-05-14T19:27:58.004Z,47.88
2023-05-14T19:30:26.526Z,49.24
2023-05-14T19:32:55.183Z,49.20
2023-05-14T19:35:24.317Z,49.79
2023-05-14T19:37:53.190Z,50.75
2023-05-14T19:40:22.192Z,51.80
2023-05-14T19:42:50.659Z,51.74
2023-05-14T19:45:19.168Z,52.75
2023-05-14T19:47:47.685Z,54.18
2023-05-14T19:50:16.152Z,53.12
2023-05-14T19:52:44.698Z,54.46
2023-05-14T19:55:13.173Z,53.07
2023-05-14T19:57:41.756Z,53.43
2023-05-14T20:00:12.103Z,54.47
2023-05-14T20:02:41.062Z,55.42
2023-05-14T20:05:10.750Z,54.60
2023-05-14T20:07:40.345Z,55.97
2023-05-14T20:10:10.072Z,57.14
2023-05-14T20:12:38.733Z,55.79
2023-05-14T20:15:08.018Z,55.90
2023-05-14T20:17:38.310Z,56.56
2023-05-14T20:20:09.364Z,56.86
2023-05-14T20:22:38.633Z,56.89
2023-05-14T20:25:08.051Z,58.72
2023-05-14T20:27:36.971Z,58.66
2023-05-14T20:30:09.301Z,59.17
2023-05-14T20:32:37.858Z,58.84
2023-05-14T20:35:07.268Z,58.68
2023-05-14T20:37:35.946Z,58.56
2023-05-14T20:40:06.324Z,58.38
2023-05-14T20:42:36.496Z,59.85
2023-05-14T20:45:06.780Z,59.21
2023-05-14T20:47:35.795Z,61.17
2023-05-14T20:53:45.955Z,58.89
2023-05-14T20:56:14.585Z,59.04
2023-05-14T20:58:43.195Z,58.81
2023-05-14T21:01:11.886Z,59.31
2023-05-14T21:03:40.582Z,59.52
2023-05-14T21:06:09.124Z,60.37
2023-05-14T21:08:39.388Z,61.00
2023-05-14T21:11:08.723Z,59.95
2023-05-14T21:13:37.280Z,60.80
2023-05-14T21:16:06.338Z,60.64
2023-05-14T21:18:35.055Z,60.21
2023-05-14T21:21:03.963Z,60.47
2023-05-14T21:23:32.609Z,61.12
2023-05-14T21:26:01.156Z,62.12
2023-05-14T21:28:29.639Z,61.28
2023-05-14T21:30:58.160Z,61.60
2023-05-14T21:33:26.699Z,63.29
2023-05-14T21:35:55.262Z,63.80
2023-05-14T21:38:23.752Z,62.92
2023-05-14T21:40:52.248Z,62.12
2023-05-14T21:43:20.711Z,61.77
2023-05-14T21:45:49.215Z,61.97
2023-05-14T21:48:18.111Z,63.94
2023-05-14T21:50:47.003Z,63.35
2023-05-14T21:53:15.682Z,64.14
2023-05-14T21:55:44.257Z,62.61
2023-05-14T21:58:12.718Z,62.16
2023-05-14T22:00:41.391Z,62.84
2023-05-14T22:03:10.180Z,62.41
2023-05-14T22:05:38.950Z,61.74
2023-05-14T22:08:07.674Z,62.07
2023-05-14T22:10:36.256Z,60.69
2023-05-14T22:13:04.702Z,60.47
2023-05-14T22:15:33.180Z,60.44
2023-05-14T22:18:03.301Z,60.70
2023-05-14T22:20:31.893Z,60.86
2023-05-14T22:23:00.247Z,60.89
2023-05-14T22:25:28.827Z,60.95
2023-05-14T22:27:57.394Z,61.32
2023-05-14T22:30:25.973Z,61.08
2023-05-14T22:32:54.433Z,61.08
2023-05-14T22:35:23.056Z,61.21
2023-05-14T22:37:51.627Z,60.86
2023-05-14T22:40:20.348Z,60.89
2023-05-14T22:42:48.820Z,61.25
2023-05-14T22:45:17.367Z,60.30
2023-05-14T22:47:46.034Z,60.22
2023-05-14T22:50:14.584Z,60.91
2023-05-14T22:52:43.165Z,60.16
2023-05-14T22:55:11.675Z,60.40
2023-05-14T22:57:40.355Z,59.58
2023-05-14T23:00:09.613Z,58.33
2023-05-14T23:02:38.246Z,58.04
2023-05-14T23:05:09.054Z,57.63
2023-05-14T23:07:37.638Z,57.16
2023-05-14T23:10:06.736Z,57.73
2023-05-14T23:12:35.240Z,57.23
2023-05-14T23:15:04.169Z,56.59
2023-05-14T23:17:32.798Z,55.93
2023-05-14T23:20:01.510Z,55.71
2023-05-14T23:22:29.964Z,55.48
2023-05-14T23:24:58.450Z,55.44
2023-05-14T23:27:27.423Z,55.24
2023-05-14T23:29:55.776Z,55.17
2023-05-14T23:32:24.430Z,55.30
2023-05-14T23:34:52.984Z,56.02
2023-05-14T23:37:21.615Z,55.92
2023-05-14T23:39:50.494Z,56.30
2023-05-14T23:42:19.008Z,55.58
2023-05-14T23:44:47.460Z,55.58
2023-05-14T23:47:16.217Z,55.51
2023-05-14T23:49:44.721Z,55.66
2023-05-14T23:52:13.240Z,55.44
2023-05-14T23:54:41.700Z,55.16
2023-05-14T23:57:13.033Z,54.95
2023-05-14T23:59:43.065Z,53.90
